Slagelse, Denmark
Current Conditions -  °F | °C
As of 2:50 AM on Saturday 25 Oct 2014 (Local Time) from EKRK Reporting Station
Light Rain Light Rain  
Wind Chill: 50°   Ceiling: 7500
Heat Index: 50°   Visibility: 3mi
Dew Point: 46°   Wind: 14mph
Humidity: 87%   Direction: 170°S
Pressure: 30"   Gusts: NA
Location:  55.4°N, 11.35°E
Report Text: EKRK 250050Z AUTO 17012KT 5000NDV -RA FEW009/// BKN075///10/08 Q1016
Loading
Personal Weather Stations






























Interactive Weather Map
Tropical Storm Tracking
New forecast layout! Learn more

10-Day Weather Forecast

Advertisements
Track Severe Weather on mobile